• Join FlightAware (Why Join?)
  • Login
  • US Flag 
08:26AM EDT


 

Airport Tracker/Info


-or-


 

Live Flight TrackerFlight Track Log ✈ SWA1379 ✈ 19-Dec-2013 ✈ KHOU - KSAT

Flight Track Log - Related Links

Times and Time Zones

All times are in EST time to prevent confusion due to time zone crossing. See the SWA1379 flight status page for this flight to view local times or setup timezone preferences in your user account.

Time Position Orientation Groundspeed Altitude Reporting Facility
EST Latitude Longitude Course Direction KTS MPH feet Rate Location/Type
09:02PM 29.6333 -95.2653 215° Southwest 152 175 800  Level Houston Center
09:03PM 29.5981 -95.2936 215° Southwest 198 228 3,200 2,520 Climbing Houston Center
09:04PM 29.5686 -95.3336 230° Southwest 193 222 5,600 2,700 Climbing Houston Center
09:04PM 29.5625 -95.3411 227° Southwest 201 231 6,000 2,640 Climbing Houston Center
09:05PM 29.5261 -95.3842 226° Southwest 215 247 8,300 2,640 Climbing Houston Center
09:05PM 29.5217 -95.3989 251° West 239 275 8,700 2,100 Climbing Houston Center
09:06PM 29.5467 -95.4622 294° West 268 308 10,500 2,040 Climbing Houston Center
09:07PM 29.5753 -95.5583 289° West 315 362 12,700 2,520 Climbing Houston Center
09:08PM 29.6092 -95.6606 291° West 339 390 15,700 1,860 Climbing Houston Center
09:09PM 29.6442 -95.7661 291° West 351 404 16,600 1,800 Climbing Houston Center
09:10PM 29.6797 -95.8747 291° West 360 414 19,400 2,940 Climbing Houston Center
09:11PM 29.7164 -95.9906 290° West 381 438 22,700 2,220 Climbing Houston Center
09:12PM 29.7525 -96.1056 290° West 370 426 24,000 600 Climbing Houston Center
09:13PM 29.7642 -96.2300 276° West 390 449 24,000  Level Houston Center
09:14PM 29.7772 -96.3794 276° West 391 450 24,000  Level Houston Center
09:15PM 29.7881 -96.5031 276° West 391 450 24,000  Level Houston Center
09:16PM 29.7992 -96.6269 276° West 392 451 24,000  Level Houston Center
09:17PM 29.8094 -96.7506 276° West 393 452 24,000  Level Houston Center
09:18PM 29.8192 -96.8736 275° West 391 450 24,000  Level Houston Center
09:19PM 29.8300 -96.9961 276° West 389 448 24,000 -420 Level Houston Center
09:20PM 29.8422 -97.1431 276° West 388 447 23,200 -840 Descending Houston Center
09:21PM 29.8511 -97.2653 275° West 387 445 22,300 -960 Descending Houston Center
09:22PM 29.8617 -97.3906 276° West 391 450 21,300 -1,020 Descending Houston Center
09:23PM 29.8714 -97.5178 275° West 398 458 20,300 -1,500 Descending Houston Center
09:24PM 29.8764 -97.5872 275° West 395 455 19,100 -2,700 Descending Houston Center
09:24PM 29.8819 -97.6533 276° West 386 444 17,600 -2,940 Descending Houston Center
09:24PM 29.8842 -97.6900 274° West 379 436 16,700 -2,820 Descending Houston Center
09:25PM 29.8914 -97.7806 275° West 373 429 14,700 -2,700 Descending Houston Center
09:25PM 29.8933 -97.8069 275° West 368 423 14,000 -1,680 Descending Houston Center
09:26PM 29.8858 -97.8903 264° West 351 404 13,000 -1,080 Descending Houston Center
09:26PM 29.8708 -97.9206 240° Southwest 339 390 12,800 -900 Descending Houston Center
09:27PM 29.8442 -97.9892 246° West 344 396 12,100 -1,140 Descending Houston Center
09:28PM 29.8283 -98.0272 244° Southwest 339 390 11,700 -1,140 Descending Houston Center
09:28PM 29.7997 -98.0944 244° Southwest 342 394 11,000 -1,020 Descending Houston Center
09:29PM 29.7872 -98.1239 244° Southwest 341 392 10,700 -1,020 Descending Houston Center
09:29PM 29.7611 -98.1872 245° Southwest 320 368 10,000 -780 Descending Houston Center
09:29PM 29.7508 -98.2078 240° Southwest 305 351 10,000 -540 Level Houston Center
09:30PM 29.7275 -98.2653 245° Southwest 275 316 9,500 -1,080 Descending Houston Center
09:31PM 29.7133 -98.2989 244° Southwest 247 284 8,700 -1,680 Descending Houston Center
09:31PM 29.6936 -98.3447 244° Southwest 259 298 7,800 -1,380 Descending Houston Center
09:32PM 29.6803 -98.3728 241° Southwest 255 293 7,300 -1,200 Descending Houston Center
09:32PM 29.6622 -98.4175 245° Southwest 256 295 6,600 -1,020 Descending Houston Center
09:33PM 29.6528 -98.4386 243° Southwest 250 288 6,400 -600 Descending Houston Center
09:33PM 29.6644 -98.4842 286° West 226 260 6,000 -420 Descending Houston Center
09:34PM 29.6753 -98.5033 303° West 220 253 6,000 -900 Level Houston Center
09:34PM 29.7019 -98.5456 306° West 220 253 5,100 -1,140 Descending Houston Center
09:35PM 29.7100 -98.5592 304° West 221 254 4,900 -600 Descending Houston Center
09:35PM 29.7394 -98.6006 309° West 219 252 4,500 -720 Descending Houston Center
09:36PM 29.7442 -98.6128 294° West 201 231 4,200 -540 Descending Houston Center
09:36PM 29.7392 -98.6536 262° West 178 205 4,000 -240 Descending Houston Center
09:37PM 29.7244 -98.6514 173° South 156 180 4,000  Level Houston Center
09:37PM 29.6942 -98.6331 152° Southeast 167 192 4,000  Level Houston Center
09:38PM 29.6828 -98.6297 166° South 161 185 4,000 -120 Level Houston Center
09:38PM 29.6511 -98.6178 162° South 163 188 3,900 -300 Descending Houston Center
09:39PM 29.6414 -98.6131 157° South 163 188 3,700 -900 Descending Houston Center
09:39PM 29.6172 -98.5817 132° Southeast 169 194 3,000 -1,020 Descending Houston Center
09:40PM 29.6083 -98.5739 143° Southeast 173 199 2,700 -840 Descending Houston Center
09:41PM 29.5819 -98.5361 129° Southeast 147 169 2,000 -720 Descending Houston Center
09:42PM 29.5603 -98.5075 131° Southeast 114 131 1,300 -600 Descending Houston Center
09:43PM 29.5403 -98.4814 131° Southeast 124 143 900 -480 Descending Houston Center